Time;durP1;ratioP1;P1;durP2;ratioP2;P2;SDS_P1;SDS_P2;PMS_P1;PMS_P2;Temp;Humidity;BMP_temperature;BMP_pressure;BME280_temperature;BME280_humidity;BME280_pressure;Samples;Min_cycle;Max_cycle;Signal;HPM_P1;HPM_P2
2022/04/27 00:01:34;;;;;;;0.70;0.70;;;8.00;99.90;;;;;;5222980;28;20024;-78
2022/04/27 00:04:05;;;;;;;0.60;0.60;;;8.00;99.90;;;;;;5246138;28;20035;-79
2022/04/27 00:06:37;;;;;;;0.68;0.68;;;8.00;99.90;;;;;;5236163;28;20590;-78
2022/04/27 00:09:08;;;;;;;0.80;0.80;;;8.00;99.90;;;;;;5244380;28;20211;-79
2022/04/27 00:11:40;;;;;;;0.50;0.50;;;8.00;99.90;;;;;;5227818;28;20051;-77
2022/04/27 00:14:13;;;;;;;0.73;0.73;;;8.00;99.90;;;;;;5229765;28;20020;-79
2022/04/27 00:16:45;;;;;;;0.60;0.60;;;8.00;99.90;;;;;;5245289;28;20025;-77
2022/04/27 00:19:17;;;;;;;0.52;0.52;;;8.00;99.90;;;;;;5247099;28;20033;-77
2022/04/27 00:21:48;;;;;;;0.90;0.90;;;8.00;99.90;;;;;;5228869;28;20040;-78
2022/04/27 00:24:24;;;;;;;0.70;0.70;;;8.00;99.90;;;;;;5246661;28;20107;-77
2022/04/27 00:26:58;;;;;;;0.77;0.77;;;8.00;99.90;;;;;;5239696;28;20024;-76
2022/04/27 00:29:29;;;;;;;0.80;0.80;;;8.00;99.90;;;;;;5224537;28;20033;-78
2022/04/27 00:32:00;;;;;;;0.63;0.63;;;8.00;99.90;;;;;;5216338;28;20402;-78
2022/04/27 00:34:32;;;;;;;0.90;0.90;;;7.90;99.90;;;;;;5222942;28;20341;-78
2022/04/27 00:37:06;;;;;;;0.73;0.73;;;7.90;99.90;;;;;;5222689;28;20047;-77
2022/04/27 00:39:37;;;;;;;0.85;0.85;;;7.90;99.90;;;;;;5227529;28;20044;-78
2022/04/27 00:42:16;;;;;;;1.15;1.15;;;7.90;99.90;;;;;;5243171;28;20040;-76
2022/04/27 00:44:51;;;;;;;0.65;0.65;;;7.80;99.90;;;;;;5226018;28;20044;-77
2022/04/27 00:47:23;;;;;;;0.70;0.70;;;7.80;99.90;;;;;;5244966;28;20020;-77
2022/04/27 00:49:57;;;;;;;0.70;0.70;;;7.80;99.90;;;;;;5242025;28;20039;-78
2022/04/27 00:52:30;;;;;;;0.57;0.57;;;7.80;99.90;;;;;;5222872;28;20455;-79
2022/04/27 00:55:02;;;;;;;0.70;0.70;;;7.90;99.90;;;;;;5223921;28;20028;-80
2022/04/27 00:57:36;;;;;;;0.47;0.47;;;7.90;99.90;;;;;;5242871;28;20099;-78
2022/04/27 01:00:12;;;;;;;0.70;0.70;;;7.90;99.90;;;;;;5244966;28;20043;-78
2022/04/27 01:02:43;;;;;;;0.70;0.70;;;7.90;99.90;;;;;;5246447;28;20028;-78
2022/04/27 01:05:15;;;;;;;0.70;0.70;;;7.90;99.90;;;;;;5240051;28;20058;-79
2022/04/27 01:07:47;;;;;;;0.70;0.70;;;7.90;99.90;;;;;;5248646;28;20023;-78
2022/04/27 01:10:18;;;;;;;0.80;0.80;;;7.90;99.90;;;;;;5245555;28;20021;-78
2022/04/27 01:12:52;;;;;;;0.63;0.63;;;8.00;99.90;;;;;;5227161;28;20025;-78
2022/04/27 01:15:38;;;;;;;0.55;0.55;;;8.00;99.90;;;;;;5245669;28;20326;-76
2022/04/27 01:18:10;;;;;;;0.80;0.80;;;8.00;99.90;;;;;;5226269;28;20046;-77
2022/04/27 01:20:44;;;;;;;0.68;0.68;;;8.00;99.90;;;;;;5221090;28;20369;-77
2022/04/27 01:23:16;;;;;;;0.70;0.70;;;8.00;99.90;;;;;;5254757;28;20028;-78
2022/04/27 01:25:48;;;;;;;0.80;0.80;;;8.00;99.90;;;;;;5232415;28;20049;-77
2022/04/27 01:28:28;;;;;;;0.40;0.40;;;8.00;99.90;;;;;;5249135;28;20028;-77
2022/04/27 01:31:06;;;;;;;0.60;0.60;;;7.90;99.90;;;;;;5248897;28;20420;-77
2022/04/27 01:33:41;;;;;;;0.60;0.60;;;8.00;99.90;;;;;;5247400;28;20028;-79
2022/04/27 01:36:15;;;;;;;0.70;0.70;;;7.90;99.90;;;;;;5230509;28;20595;-76
2022/04/27 01:38:49;;;;;;;1.00;1.00;;;7.90;99.90;;;;;;5228199;28;20016;-78
2022/04/27 01:41:21;;;;;;;0.80;0.80;;;7.90;99.90;;;;;;5248215;28;20024;-79
2022/04/27 01:43:52;;;;;;;0.40;0.40;;;7.90;99.90;;;;;;5230106;28;20036;-78
2022/04/27 01:46:30;;;;;;;0.75;0.75;;;7.90;99.90;;;;;;5246181;28;20027;-77
2022/04/27 01:49:04;;;;;;;0.68;0.68;;;7.90;99.90;;;;;;5250834;28;20034;-77
2022/04/27 01:54:30;;;;;;;0.70;0.70;;;7.90;99.90;;;;;;5249931;28;20028;-78
2022/04/27 01:57:05;;;;;;;0.90;0.90;;;7.90;99.90;;;;;;5252465;28;20542;-77
2022/04/27 01:59:37;;;;;;;0.88;0.88;;;8.00;99.90;;;;;;5246861;28;20040;-76
2022/04/27 02:02:10;;;;;;;0.60;0.60;;;8.00;99.90;;;;;;5246388;28;20047;-78
2022/04/27 02:04:42;;;;;;;0.70;0.70;;;7.90;99.90;;;;;;5236627;28;20204;-79
2022/04/27 02:07:17;;;;;;;0.68;0.68;;;7.90;99.90;;;;;;5247685;28;20020;-77
2022/04/27 02:09:48;;;;;;;0.80;0.80;;;7.90;99.90;;;;;;5249034;28;20032;-78
2022/04/27 02:12:23;;;;;;;0.70;0.70;;;7.90;99.90;;;;;;5247740;28;20328;-81
2022/04/27 02:14:54;;;;;;;0.60;0.60;;;7.90;99.90;;;;;;5233711;28;20036;-77
2022/04/27 02:17:25;;;;;;;0.70;0.70;;;7.90;99.90;;;;;;5248638;28;20534;-78
2022/04/27 02:19:57;;;;;;;0.40;0.40;;;8.00;99.90;;;;;;5247834;28;20036;-78
2022/04/27 02:22:28;;;;;;;0.70;0.70;;;7.90;99.90;;;;;;5231664;28;20894;-77
2022/04/27 02:25:02;;;;;;;0.52;0.52;;;7.90;99.90;;;;;;5250710;28;20036;-77
2022/04/27 02:27:33;;;;;;;0.70;0.70;;;8.00;99.90;;;;;;5250800;28;20037;-78
2022/04/27 02:30:05;;;;;;;0.82;0.82;;;8.00;99.90;;;;;;5250403;28;20020;-78
2022/04/27 02:32:38;;;;;;;0.80;0.80;;;8.00;99.90;;;;;;5250143;28;20030;-77
2022/04/27 02:35:17;;;;;;;0.85;0.85;;;8.00;99.90;;;;;;5213364;28;20383;-78
2022/04/27 02:37:51;;;;;;;0.80;0.80;;;8.00;99.90;;;;;;5248976;28;20028;-77
2022/04/27 02:40:29;;;;;;;0.75;0.75;;;7.90;99.90;;;;;;5247560;28;20032;-77
2022/04/27 02:43:05;;;;;;;0.80;0.80;;;8.00;99.90;;;;;;5228559;28;20031;-78
2022/04/27 02:45:41;;;;;;;0.70;0.70;;;7.90;99.90;;;;;;5227416;28;20534;-79
2022/04/27 02:48:12;;;;;;;0.70;0.70;;;7.90;99.90;;;;;;5227022;28;20678;-79
2022/04/27 02:53:41;;;;;;;0.70;0.70;;;8.00;99.90;;;;;;5247078;28;20024;-77
2022/04/27 02:56:12;;;;;;;0.47;0.47;;;8.00;99.90;;;;;;5226111;28;20067;-78
2022/04/27 02:58:46;;;;;;;0.80;0.80;;;7.90;99.90;;;;;;5229250;28;20012;-77
2022/04/27 03:01:17;;;;;;;0.88;0.88;;;8.00;99.90;;;;;;5243633;28;20041;-78
2022/04/27 03:03:54;;;;;;;0.60;0.60;;;8.00;99.90;;;;;;5247014;28;20032;-78
2022/04/27 03:06:27;;;;;;;0.85;0.85;;;8.00;99.90;;;;;;5216755;28;20036;-78
2022/04/27 03:09:01;;;;;;;0.40;0.40;;;8.10;99.90;;;;;;5227462;28;20330;-78
2022/04/27 03:11:40;;;;;;;0.63;0.63;;;8.00;99.90;;;;;;5232627;28;20099;-78
2022/04/27 03:14:14;;;;;;;0.80;0.80;;;8.00;99.90;;;;;;5249288;28;20047;-77
2022/04/27 03:16:52;;;;;;;0.75;0.75;;;8.10;99.90;;;;;;5243161;28;20468;-78
2022/04/27 03:19:24;;;;;;;0.73;0.73;;;8.10;99.90;;;;;;5245530;28;20470;-76
2022/04/27 03:21:59;;;;;;;0.70;0.70;;;8.00;99.90;;;;;;5247260;28;20020;-78
2022/04/27 03:24:33;;;;;;;0.70;0.70;;;8.00;99.90;;;;;;5247310;28;20025;-78
2022/04/27 03:27:05;;;;;;;0.50;0.50;;;8.00;99.90;;;;;;5229854;28;20270;-78
2022/04/27 03:29:36;;;;;;;0.57;0.57;;;8.00;99.90;;;;;;5229722;28;20551;-77
2022/04/27 03:32:10;;;;;;;0.60;0.60;;;8.00;99.90;;;;;;5246585;28;20043;-77
2022/04/27 03:34:41;;;;;;;0.82;0.82;;;8.00;99.90;;;;;;5246960;28;20028;-78
2022/04/27 03:37:13;;;;;;;0.50;0.50;;;8.00;99.90;;;;;;5246980;28;20032;-78
2022/04/27 03:39:48;;;;;;;0.60;0.60;;;8.00;99.90;;;;;;5246591;28;20338;-78
2022/04/27 03:42:20;;;;;;;0.50;0.50;;;8.00;99.90;;;;;;5249482;28;20032;-76
2022/04/27 03:44:58;;;;;;;0.70;0.70;;;8.00;99.90;;;;;;5247783;28;20047;-79
2022/04/27 03:47:30;;;;;;;0.63;0.63;;;8.00;99.90;;;;;;5253892;28;20020;-77
2022/04/27 03:50:04;;;;;;;0.50;0.50;;;8.00;99.90;;;;;;5256092;28;20281;-78
2022/04/27 03:52:38;;;;;;;0.82;0.82;;;8.00;99.90;;;;;;5248200;28;20021;-78
2022/04/27 03:55:10;;;;;;;0.90;0.90;;;8.10;99.90;;;;;;5231104;28;20036;-80
2022/04/27 03:57:47;;;;;;;0.40;0.40;;;8.10;99.90;;;;;;5248732;28;20358;-78
2022/04/27 04:00:19;;;;;;;0.60;0.60;;;8.10;99.90;;;;;;5248185;28;20042;-79
2022/04/27 04:02:50;;;;;;;0.60;0.60;;;8.10;99.90;;;;;;5214446;28;20306;-78
2022/04/27 04:05:26;;;;;;;0.60;0.60;;;8.10;99.90;;;;;;5185317;28;20044;-79
2022/04/27 04:08:00;;;;;;;0.73;0.73;;;8.10;99.90;;;;;;5231045;28;20020;-77
2022/04/27 04:10:32;;;;;;;0.93;0.93;;;8.10;99.90;;;;;;5246812;28;20020;-78
2022/04/27 04:13:03;;;;;;;0.57;0.57;;;8.20;99.90;;;;;;5230155;28;20043;-78
2022/04/27 04:15:37;;;;;;;0.65;0.65;;;8.10;99.90;;;;;;5246225;28;20042;-77
2022/04/27 04:18:08;;;;;;;0.77;0.77;;;8.10;99.90;;;;;;5249036;28;20020;-76
2022/04/27 04:20:44;;;;;;;0.60;0.60;;;8.20;99.90;;;;;;5227511;28;20269;-77
2022/04/27 04:23:15;;;;;;;0.70;0.70;;;8.20;99.90;;;;;;5244204;28;20087;-78
2022/04/27 04:28:39;;;;;;;0.80;0.80;;;8.20;99.90;;;;;;5214630;28;20476;-76
2022/04/27 04:31:17;;;;;;;0.55;0.55;;;8.20;99.90;;;;;;5228398;28;20035;-77
2022/04/27 04:33:53;;;;;;;0.60;0.60;;;8.20;99.90;;;;;;5194282;28;20037;-80
2022/04/27 04:36:24;;;;;;;0.40;0.40;;;8.20;99.90;;;;;;5237206;28;20043;-79
2022/04/27 04:38:58;;;;;;;0.65;0.65;;;8.20;99.90;;;;;;5246947;28;20339;-78
2022/04/27 04:41:36;;;;;;;0.80;0.80;;;8.20;99.90;;;;;;5248804;28;20558;-78
2022/04/27 04:44:10;;;;;;;0.60;0.60;;;8.20;99.90;;;;;;5230511;28;20039;-77
2022/04/27 04:46:42;;;;;;;;;;;8.20;99.90;;;;;;5247700;28;20024;-78
2022/04/27 04:49:15;;;;;;;0.80;0.80;;;8.20;99.90;;;;;;5248776;28;19900;-78
2022/04/27 04:51:46;;;;;;;1.00;1.00;;;8.20;99.90;;;;;;5242912;28;20322;-78
2022/04/27 04:54:18;;;;;;;0.68;0.68;;;8.20;99.90;;;;;;5236147;28;20798;-78
2022/04/27 04:56:49;;;;;;;0.80;0.80;;;8.20;99.90;;;;;;5250607;28;20108;-77
2022/04/27 04:59:23;;;;;;;0.73;0.73;;;8.20;99.90;;;;;;5249553;28;20367;-79
2022/04/27 05:01:57;;;;;;;0.70;0.70;;;8.20;99.90;;;;;;5250046;28;20028;-78
2022/04/27 05:04:32;;;;;;;0.80;0.80;;;8.20;99.90;;;;;;5205126;28;20357;-76
2022/04/27 05:07:04;;;;;;;0.93;0.93;;;8.20;99.90;;;;;;5250923;28;20302;-77
2022/04/27 05:09:38;;;;;;;0.60;0.60;;;8.20;99.90;;;;;;5227818;28;20433;-79
2022/04/27 05:12:10;;;;;;;0.50;0.50;;;8.20;99.90;;;;;;5229547;28;20029;-78
2022/04/27 05:14:44;;;;;;;0.60;0.60;;;8.20;99.90;;;;;;5236837;28;20033;-79
2022/04/27 05:17:17;;;;;;;0.60;0.60;;;8.30;99.90;;;;;;5250576;28;20024;-78
2022/04/27 05:19:54;;;;;;;0.60;0.60;;;8.30;99.90;;;;;;5233304;28;20040;-78
2022/04/27 05:22:34;;;;;;;0.57;0.57;;;8.30;99.90;;;;;;5249246;28;20040;-77
2022/04/27 05:25:08;;;;;;;0.80;0.80;;;8.40;99.90;;;;;;5250147;28;20028;-78
2022/04/27 05:27:40;;;;;;;0.60;0.60;;;8.40;99.90;;;;;;5249486;28;20547;-77
2022/04/27 05:33:04;;;;;;;0.60;0.60;;;8.40;99.90;;;;;;5233558;28;20451;-79
2022/04/27 05:35:42;;;;;;;0.65;0.65;;;8.40;99.90;;;;;;5226618;28;20024;-77
2022/04/27 05:38:13;;;;;;;0.50;0.50;;;8.40;99.90;;;;;;5257757;28;20030;-75
2022/04/27 05:40:47;;;;;;;0.60;0.60;;;8.40;99.90;;;;;;5262329;28;20028;-78
2022/04/27 05:43:19;;;;;;;;;;;8.30;99.90;;;;;;5249894;28;20034;-78
2022/04/27 05:45:52;;;;;;;0.95;0.95;;;8.30;99.90;;;;;;5232794;28;19900;-78
2022/04/27 05:48:23;;;;;;;1.83;1.67;;;8.30;99.90;;;;;;5226402;28;20036;-76
2022/04/27 05:50:55;;;;;;;0.65;0.65;;;8.20;99.90;;;;;;5250157;28;20044;-78
2022/04/27 05:53:27;;;;;;;0.57;0.57;;;8.10;99.90;;;;;;5246150;28;20238;-76
2022/04/27 05:55:58;;;;;;;1.10;0.70;;;8.10;99.90;;;;;;5224237;28;20020;-77
2022/04/27 05:58:30;;;;;;;0.80;0.80;;;8.00;99.90;;;;;;5241382;28;20464;-77
2022/04/27 06:01:04;;;;;;;0.60;0.60;;;7.90;99.90;;;;;;5223454;28;20027;-76
2022/04/27 06:03:39;;;;;;;0.70;0.70;;;7.80;99.90;;;;;;5235441;28;20301;-78
2022/04/27 06:06:11;;;;;;;0.70;0.70;;;7.80;99.90;;;;;;5213800;28;20122;-79
2022/04/27 06:08:42;;;;;;;0.60;0.60;;;7.70;99.90;;;;;;5219652;28;20039;-76
2022/04/27 06:11:13;;;;;;;0.70;0.70;;;7.70;99.90;;;;;;5203239;28;20028;-77
2022/04/27 06:13:47;;;;;;;0.40;0.40;;;7.70;99.90;;;;;;5220045;28;20030;-78
2022/04/27 06:16:22;;;;;;;0.63;0.63;;;7.60;99.90;;;;;;5227117;28;20043;-76
2022/04/27 06:18:53;;;;;;;0.47;0.47;;;7.70;99.90;;;;;;5241107;28;20342;-78
2022/04/27 06:21:27;;;;;;;0.60;0.60;;;7.60;99.90;;;;;;5221516;28;20190;-78
2022/04/27 06:24:06;;;;;;;0.70;0.70;;;7.60;99.90;;;;;;5240416;28;20316;-78
2022/04/27 06:26:37;;;;;;;0.60;0.60;;;7.50;99.90;;;;;;5229181;28;20336;-79
2022/04/27 06:29:09;;;;;;;0.60;0.60;;;7.50;99.90;;;;;;5238972;28;20028;-79
2022/04/27 06:31:46;;;;;;;1.13;1.13;;;7.50;99.90;;;;;;5248836;28;20025;-80
2022/04/27 06:34:17;;;;;;;0.90;0.90;;;7.50;99.90;;;;;;5246437;28;20253;-77
2022/04/27 06:36:51;;;;;;;0.50;0.50;;;7.50;99.90;;;;;;5248929;28;20033;-79
2022/04/27 06:39:27;;;;;;;0.50;0.50;;;7.60;99.90;;;;;;5262419;28;20028;-75
2022/04/27 06:41:59;;;;;;;0.30;0.30;;;7.60;99.90;;;;;;5239025;28;20037;-78
2022/04/27 06:44:34;;;;;;;0.55;0.55;;;7.60;99.90;;;;;;5222565;28;20052;-78
2022/04/27 06:47:05;;;;;;;0.90;0.90;;;7.70;99.90;;;;;;5249275;28;20205;-77
2022/04/27 06:49:36;;;;;;;0.30;0.30;;;7.80;99.90;;;;;;5235543;28;20025;-78
2022/04/27 06:52:10;;;;;;;0.60;0.60;;;7.90;99.90;;;;;;5232051;28;202101;-76
2022/04/27 06:54:42;;;;;;;0.60;0.60;;;7.90;99.90;;;;;;5242260;28;20032;-78
2022/04/27 06:57:17;;;;;;;0.30;0.30;;;7.90;99.90;;;;;;5245653;28;20355;-76
2022/04/27 06:59:48;;;;;;;0.47;0.47;;;8.00;99.90;;;;;;5248467;28;20035;-79
2022/04/27 07:02:25;;;;;;;0.52;0.52;;;8.10;99.90;;;;;;5247839;28;20223;-77
2022/04/27 07:05:01;;;;;;;0.30;0.30;;;8.20;99.90;;;;;;5226407;28;20216;-76
2022/04/27 07:07:33;;;;;;;0.35;0.35;;;8.40;99.90;;;;;;5220237;28;20031;-78
2022/04/27 07:10:04;;;;;;;0.50;0.50;;;8.40;99.90;;;;;;5205347;28;20043;-76
2022/04/27 07:12:35;;;;;;;0.50;0.50;;;8.60;99.90;;;;;;5208092;28;20361;-78
2022/04/27 07:15:07;;;;;;;0.50;0.50;;;8.70;99.90;;;;;;5208925;28;20349;-76
2022/04/27 07:17:38;;;;;;;0.55;0.55;;;8.90;99.90;;;;;;5212545;28;20025;-77
2022/04/27 07:20:10;;;;;;;0.40;0.40;;;9.00;99.90;;;;;;5204911;28;20389;-77
2022/04/27 07:22:44;;;;;;;0.73;0.73;;;9.00;99.90;;;;;;5221570;28;20017;-75
2022/04/27 07:25:18;;;;;;;0.70;0.70;;;9.00;99.90;;;;;;5205104;28;20237;-78
2022/04/27 07:27:49;;;;;;;1.88;1.77;;;9.00;99.90;;;;;;5232607;28;20087;-77
2022/04/27 07:30:23;;;;;;;0.60;0.60;;;9.00;99.90;;;;;;5228610;28;20025;-75
2022/04/27 07:32:56;;;;;;;0.50;0.50;;;8.90;99.90;;;;;;5237757;28;20031;-77
2022/04/27 07:35:28;;;;;;;0.50;0.50;;;8.80;99.90;;;;;;5233652;28;20029;-78
2022/04/27 07:37:59;;;;;;;0.60;0.60;;;8.80;99.90;;;;;;5204313;28;20084;-79
2022/04/27 07:40:31;;;;;;;0.60;0.60;;;8.80;99.90;;;;;;5187576;28;20028;-78
2022/04/27 07:43:04;;;;;;;0.70;0.70;;;8.90;99.90;;;;;;5215135;28;20039;-78
2022/04/27 07:45:36;;;;;;;0.40;0.40;;;8.80;99.90;;;;;;5226031;28;20201;-79
2022/04/27 07:48:10;;;;;;;0.43;0.43;;;8.70;99.90;;;;;;5224304;28;20032;-78
2022/04/27 07:50:44;;;;;;;2.45;1.30;;;8.70;99.90;;;;;;5210344;28;20230;-76
2022/04/27 07:53:18;;;;;;;0.70;0.70;;;8.80;99.90;;;;;;5218457;28;20035;-77
2022/04/27 07:55:50;;;;;;;0.57;0.57;;;8.80;99.90;;;;;;5222135;28;20021;-77
2022/04/27 07:58:26;;;;;;;0.40;0.40;;;8.80;99.90;;;;;;5204419;28;20025;-78
2022/04/27 08:01:00;;;;;;;0.40;0.40;;;8.80;99.90;;;;;;5189033;28;20044;-78
2022/04/27 08:03:31;;;;;;;0.60;0.60;;;8.80;99.90;;;;;;5205342;28;20031;-79
2022/04/27 08:06:06;;;;;;;0.57;0.57;;;8.80;99.90;;;;;;5190920;28;20061;-77
2022/04/27 08:08:37;;;;;;;0.50;0.50;;;8.80;99.90;;;;;;5224359;28;20028;-78
2022/04/27 08:11:13;;;;;;;0.60;0.60;;;8.80;99.90;;;;;;5224231;28;20036;-77
2022/04/27 08:13:47;;;;;;;0.40;0.40;;;8.80;99.90;;;;;;5222331;28;20275;-76
2022/04/27 08:16:19;;;;;;;0.70;0.70;;;8.80;99.90;;;;;;5222352;28;20319;-76
2022/04/27 08:18:55;;;;;;;0.40;0.40;;;8.80;99.90;;;;;;5222836;28;20352;-77
2022/04/27 08:21:27;;;;;;;0.50;0.50;;;8.60;99.90;;;;;;5176358;28;20049;-78
2022/04/27 08:24:08;;;;;;;0.40;0.40;;;8.60;99.90;;;;;;5222336;28;20046;-78
2022/04/27 08:26:42;;;;;;;0.57;0.57;;;8.50;99.90;;;;;;5221844;28;20024;-78
2022/04/27 08:29:17;;;;;;;0.50;0.50;;;8.50;99.90;;;;;;5201113;28;20017;-77
2022/04/27 08:31:48;;;;;;;0.40;0.40;;;8.50;99.90;;;;;;5200124;28;20235;-79
2022/04/27 08:34:21;;;;;;;0.47;0.47;;;8.40;99.90;;;;;;5167689;28;20044;-75
2022/04/27 08:36:55;;;;;;;0.82;0.82;;;8.50;99.90;;;;;;5183854;28;20033;-78
2022/04/27 08:39:31;;;;;;;0.50;0.50;;;8.50;99.90;;;;;;5183821;28;20033;-79
2022/04/27 08:42:03;;;;;;;0.52;0.52;;;8.50;99.90;;;;;;5188483;28;20275;-76
2022/04/27 08:44:38;;;;;;;0.50;0.50;;;8.50;99.90;;;;;;5218133;28;20021;-76
2022/04/27 08:47:10;;;;;;;0.60;0.60;;;8.50;99.90;;;;;;5222360;28;20063;-78
2022/04/27 08:49:41;;;;;;;0.57;0.57;;;8.50;99.90;;;;;;5221352;28;20029;-75
2022/04/27 08:52:18;;;;;;;0.63;0.63;;;8.50;99.90;;;;;;5198464;28;20041;-76
2022/04/27 08:54:52;;;;;;;0.40;0.40;;;8.50;99.90;;;;;;5201259;28;20300;-78
2022/04/27 08:57:23;;;;;;;1.95;1.85;;;8.40;99.90;;;;;;5166031;28;20025;-77
2022/04/27 08:59:57;;;;;;;1.27;1.17;;;8.50;99.90;;;;;;5200205;28;20017;-76
2022/04/27 09:02:29;;;;;;;0.52;0.52;;;8.60;99.90;;;;;;5162734;28;20034;-78
2022/04/27 09:05:21;;;;;;;0.52;0.52;;;8.60;99.90;;;;;;5175461;28;20103;-78
2022/04/27 09:07:56;;;;;;;0.43;0.43;;;8.60;99.90;;;;;;5192319;28;20035;-76
2022/04/27 09:10:30;;;;;;;0.60;0.60;;;8.60;99.90;;;;;;5191257;28;20243;-77
2022/04/27 09:13:03;;;;;;;0.60;0.60;;;8.60;99.90;;;;;;5174057;28;20030;-78
2022/04/27 09:15:39;;;;;;;0.60;0.60;;;8.70;99.90;;;;;;5201234;28;20372;-79
2022/04/27 09:21:02;;;;;;;0.47;0.47;;;8.70;99.90;;;;;;5201740;28;20227;-79
2022/04/27 09:23:37;;;;;;;0.60;0.60;;;8.80;99.90;;;;;;5188303;28;20029;-79
2022/04/27 09:26:19;;;;;;;0.52;0.52;;;8.80;99.90;;;;;;5208935;28;20022;-78
2022/04/27 09:28:55;;;;;;;0.40;0.40;;;8.80;99.90;;;;;;5172813;28;20051;-79
2022/04/27 09:31:34;;;;;;;0.70;0.70;;;8.90;99.90;;;;;;5207531;28;20021;-78
2022/04/27 09:34:28;;;;;;;0.70;0.70;;;8.90;99.90;;;;;;5189235;28;20033;-78
2022/04/27 09:37:04;;;;;;;0.88;0.88;;;9.00;99.90;;;;;;5192058;28;20496;-80
2022/04/27 09:39:36;;;;;;;0.68;0.68;;;9.00;99.90;;;;;;5172225;28;20897;-79
2022/04/27 09:42:10;;;;;;;0.40;0.40;;;9.10;99.90;;;;;;5177642;28;20033;-79
2022/04/27 09:44:42;;;;;;;0.68;0.68;;;9.10;99.90;;;;;;5210298;28;20030;-80
2022/04/27 09:47:13;;;;;;;0.80;0.80;;;9.20;99.90;;;;;;5180052;28;20037;-77
2022/04/27 09:49:56;;;;;;;0.40;0.40;;;9.20;99.90;;;;;;5196155;28;20040;-80
2022/04/27 09:52:28;;;;;;;0.63;0.63;;;9.30;99.90;;;;;;5210988;28;20040;-79
2022/04/27 09:55:01;;;;;;;0.95;0.95;;;9.30;99.90;;;;;;5212082;28;20018;-79
2022/04/27 09:57:36;;;;;;;1.20;1.05;;;9.40;99.90;;;;;;5211983;28;20039;-76
2022/04/27 10:00:12;;;;;;;0.63;0.63;;;9.40;99.90;;;;;;5211316;28;20051;-76
2022/04/27 10:02:48;;;;;;;0.98;0.98;;;9.50;99.90;;;;;;5192619;28;20040;-80
2022/04/27 10:05:23;;;;;;;0.70;0.70;;;9.50;99.90;;;;;;5201785;28;20055;-77
2022/04/27 10:07:56;;;;;;;0.60;0.60;;;9.60;99.90;;;;;;5216856;28;20035;-78
2022/04/27 10:10:31;;;;;;;0.68;0.68;;;9.70;99.90;;;;;;5193302;28;20033;-78
2022/04/27 10:13:16;;;;;;;0.43;0.43;;;9.70;99.90;;;;;;5201764;28;20355;-78
2022/04/27 10:15:51;;;;;;;1.10;1.10;;;9.80;99.90;;;;;;5200133;28;20230;-78
2022/04/27 10:18:25;;;;;;;0.70;0.70;;;9.80;99.90;;;;;;5196575;28;20319;-79
2022/04/27 10:21:04;;;;;;;1.15;1.15;;;9.80;99.90;;;;;;5189438;28;20036;-79
2022/04/27 10:23:46;;;;;;;0.90;0.90;;;9.90;99.90;;;;;;5173908;28;20060;-79
2022/04/27 10:26:27;;;;;;;0.60;0.60;;;9.80;99.90;;;;;;5194381;28;20365;-78
2022/04/27 10:29:06;;;;;;;0.73;0.73;;;9.80;99.90;;;;;;5163060;28;20034;-82
2022/04/27 10:31:40;;;;;;;0.47;0.47;;;9.80;99.90;;;;;;5166096;28;20047;-77
2022/04/27 10:34:17;;;;;;;0.68;0.68;;;9.80;99.90;;;;;;5201634;28;20040;-76
2022/04/27 10:36:56;;;;;;;1.00;1.00;;;9.80;99.90;;;;;;5183216;28;20030;-77
2022/04/27 10:39:34;;;;;;;0.70;0.70;;;9.90;99.90;;;;;;5183792;28;20036;-78
2022/04/27 10:42:05;;;;;;;0.68;0.68;;;9.90;99.90;;;;;;5201640;28;20227;-78
2022/04/27 10:44:53;;;;;;;0.75;0.75;;;9.90;99.90;;;;;;5187423;28;20223;-81
2022/04/27 10:47:24;;;;;;;0.50;0.50;;;9.90;99.90;;;;;;5201366;28;20030;-77
2022/04/27 10:50:14;;;;;;;0.65;0.65;;;9.90;99.90;;;;;;5182460;28;20032;-78
2022/04/27 10:52:55;;;;;;;0.80;0.80;;;10.00;99.90;;;;;;5220870;28;20032;-78
2022/04/27 10:55:35;;;;;;;0.73;0.73;;;10.20;99.90;;;;;;5220733;28;20024;-78
2022/04/27 10:58:28;;;;;;;0.70;0.70;;;10.30;99.90;;;;;;5221753;28;20330;-77
2022/04/27 11:01:03;;;;;;;0.40;0.40;;;10.40;99.90;;;;;;5219009;28;20043;-77
2022/04/27 11:03:38;;;;;;;0.77;0.77;;;10.50;99.90;;;;;;5220224;28;20295;-78
2022/04/27 11:06:16;;;;;;;0.50;0.50;;;10.60;99.90;;;;;;5193370;28;20342;-77
2022/04/27 11:09:15;;;;;;;0.60;0.60;;;10.50;99.90;;;;;;5234242;28;20238;-78
2022/04/27 11:11:58;;;;;;;0.77;0.77;;;10.60;99.90;;;;;;5245013;28;20032;-76
2022/04/27 11:14:34;;;;;;;0.60;0.60;;;10.70;99.90;;;;;;5218742;28;20028;-76
2022/04/27 11:17:08;;;;;;;0.80;0.80;;;11.00;99.90;;;;;;5203115;28;20039;-77
2022/04/27 11:19:47;;;;;;;0.85;0.85;;;11.00;99.90;;;;;;5224150;28;20017;-78
2022/04/27 11:22:18;;;;;;;0.57;0.57;;;10.90;99.90;;;;;;5221352;28;20327;-78
2022/04/27 11:24:50;;;;;;;0.45;0.45;;;10.80;99.90;;;;;;5203328;28;20381;-77
2022/04/27 11:27:26;;;;;;;0.60;0.60;;;11.00;99.90;;;;;;5220119;28;20210;-76
2022/04/27 11:29:58;;;;;;;0.60;0.60;;;11.10;99.90;;;;;;5222075;28;20043;-79
2022/04/27 11:32:29;;;;;;;0.77;0.77;;;11.20;99.90;;;;;;5220674;28;20409;-80
2022/04/27 11:35:01;;;;;;;0.40;0.40;;;11.20;99.90;;;;;;5205601;28;20318;-78
2022/04/27 11:37:36;;;;;;;0.65;0.65;;;11.30;99.90;;;;;;5219306;28;20029;-77
2022/04/27 11:40:17;;;;;;;0.60;0.60;;;11.40;99.90;;;;;;5221205;28;20340;-79
2022/04/27 11:42:49;;;;;;;0.80;0.80;;;11.50;99.90;;;;;;5220004;28;20028;-78
2022/04/27 11:45:22;;;;;;;0.60;0.60;;;11.70;99.90;;;;;;5219396;28;20031;-78
2022/04/27 11:48:01;;;;;;;0.60;0.60;;;11.90;99.90;;;;;;5218310;28;20033;-77
2022/04/27 11:50:34;;;;;;;0.60;0.60;;;11.90;99.90;;;;;;5200685;28;20033;-80
2022/04/27 11:53:13;;;;;;;1.05;1.05;;;11.70;99.90;;;;;;5181746;28;20082;-76
2022/04/27 11:55:54;;;;;;;0.40;0.40;;;11.80;99.90;;;;;;5199547;28;20208;-78
2022/04/27 11:58:30;;;;;;;0.82;0.82;;;12.00;99.90;;;;;;5157731;28;20132;-78
2022/04/27 12:01:01;;;;;;;0.77;0.77;;;11.90;99.90;;;;;;5177529;28;20021;-78
2022/04/27 12:03:41;;;;;;;0.50;0.50;;;12.10;99.90;;;;;;5200975;28;20147;-76
2022/04/27 12:06:23;;;;;;;1.00;1.00;;;12.50;99.90;;;;;;5156723;28;20061;-78
2022/04/27 12:09:01;;;;;;;0.45;0.45;;;12.60;99.90;;;;;;5183617;28;20022;-76
2022/04/27 12:11:33;;;;;;;0.80;0.80;;;12.90;99.90;;;;;;5139613;28;20109;-80
2022/04/27 12:14:05;;;;;;;0.98;0.98;;;13.00;99.90;;;;;;5198113;28;20036;-76
2022/04/27 12:16:42;;;;;;;1.00;0.98;;;12.80;99.90;;;;;;5200835;28;20189;-75
2022/04/27 12:19:17;;;;;;;0.85;0.85;;;13.10;99.90;;;;;;5182631;28;20017;-77
2022/04/27 12:21:48;;;;;;;1.00;1.00;;;13.10;99.90;;;;;;5199037;28;20318;-79
2022/04/27 12:24:22;;;;;;;0.70;0.70;;;12.80;99.90;;;;;;5200657;28;20025;-77
2022/04/27 12:26:54;;;;;;;0.88;0.88;;;12.50;99.90;;;;;;5182918;28;20221;-80
2022/04/27 12:29:27;;;;;;;0.73;0.73;;;12.20;99.90;;;;;;5180716;28;20045;-78
2022/04/27 12:31:58;;;;;;;0.93;0.93;;;12.30;99.90;;;;;;5162867;28;20029;-78
2022/04/27 12:37:31;;;;;;;1.13;1.13;;;12.50;99.90;;;;;;5194324;28;20276;-77
2022/04/27 12:40:15;;;;;;;0.50;0.50;;;12.60;99.90;;;;;;5200174;28;20251;-77
2022/04/27 12:42:59;;;;;;;0.73;0.73;;;12.50;99.90;;;;;;5182916;28;20060;-78
2022/04/27 12:45:34;;;;;;;1.00;1.00;;;12.70;99.90;;;;;;5180082;28;20228;-76
2022/04/27 12:48:06;;;;;;;0.75;0.75;;;12.60;99.90;;;;;;5167075;28;20037;-75
2022/04/27 12:50:49;;;;;;;0.85;0.85;;;12.60;99.90;;;;;;5206179;28;20048;-77
2022/04/27 12:53:26;;;;;;;0.75;0.75;;;12.50;99.90;;;;;;5222760;28;20033;-79
2022/04/27 12:56:20;;;;;;;0.80;0.80;;;12.60;99.90;;;;;;5205057;28;20176;-75
2022/04/27 12:59:07;;;;;;;0.77;0.77;;;12.80;99.90;;;;;;5239935;28;20238;-78
2022/04/27 13:01:40;;;;;;;0.73;0.73;;;12.80;99.90;;;;;;5225725;28;20286;-78
2022/04/27 13:04:15;;;;;;;0.60;0.60;;;12.80;99.90;;;;;;5196876;28;20025;-77
2022/04/27 13:06:51;;;;;;;0.90;0.90;;;12.80;99.90;;;;;;5201542;28;20044;-77
2022/04/27 13:12:12;;;;;;;1.10;1.08;;;13.20;99.90;;;;;;5230566;28;20024;-77
2022/04/27 13:14:47;;;;;;;0.63;0.63;;;13.00;99.90;;;;;;5243827;28;20016;-77
2022/04/27 13:17:20;;;;;;;0.77;0.77;;;12.70;99.90;;;;;;5224614;28;20368;-78
2022/04/27 13:19:54;;;;;;;0.73;0.73;;;12.90;99.90;;;;;;5250089;28;20024;-77
2022/04/27 13:22:25;;;;;;;1.10;1.10;;;13.10;99.90;;;;;;5238983;28;20043;-79
2022/04/27 13:25:00;;;;;;;0.85;0.85;;;13.30;99.90;;;;;;5228433;28;20204;-77
2022/04/27 13:27:31;;;;;;;0.63;0.63;;;13.10;99.90;;;;;;5246546;28;20318;-79
2022/04/27 13:30:06;;;;;;;1.00;1.00;;;13.20;99.90;;;;;;5247308;28;20210;-77
2022/04/27 13:32:38;;;;;;;0.82;0.82;;;13.30;99.90;;;;;;5251478;28;20036;-80
2022/04/27 13:35:12;;;;;;;0.60;0.60;;;13.50;99.90;;;;;;5231424;28;20334;-79
2022/04/27 13:37:44;;;;;;;0.85;0.85;;;13.60;99.90;;;;;;5234078;28;20452;-78
2022/04/27 13:40:16;;;;;;;1.00;1.00;;;13.30;99.90;;;;;;5217710;28;20166;-76
2022/04/27 13:42:52;;;;;;;2.05;1.95;;;13.20;99.90;;;;;;5248914;28;20046;-78
2022/04/27 13:45:25;;;;;;;0.80;0.80;;;13.30;99.90;;;;;;5241763;28;20039;-77
2022/04/27 13:47:56;;;;;;;0.90;0.90;;;13.20;99.90;;;;;;5245323;28;20016;-77
2022/04/27 13:50:29;;;;;;;0.73;0.73;;;13.10;99.90;;;;;;5228029;28;20504;-77
2022/04/27 13:53:05;;;;;;;0.80;0.80;;;13.00;99.90;;;;;;5243830;28;20184;-77